createdAt,value
2018-09-17T00:01:09.808Z,99.90
2018-09-17T00:03:38.102Z,99.90
2018-09-17T00:06:06.444Z,99.90
2018-09-17T00:08:34.746Z,99.90
2018-09-17T00:11:03.106Z,99.90
2018-09-17T00:13:31.480Z,99.90
2018-09-17T00:15:59.814Z,99.90
2018-09-17T00:18:28.142Z,99.90
2018-09-17T00:20:56.442Z,99.90
2018-09-17T00:23:24.803Z,99.90
2018-09-17T00:25:53.138Z,99.90
2018-09-17T00:28:21.487Z,99.90
2018-09-17T00:30:49.850Z,99.90
2018-09-17T00:33:18.151Z,99.90
2018-09-17T00:35:46.507Z,99.90
2018-09-17T00:38:14.765Z,99.90
2018-09-17T00:40:43.088Z,99.90
2018-09-17T00:43:11.408Z,99.90
2018-09-17T00:45:39.743Z,99.90
2018-09-17T00:48:08.062Z,99.90
2018-09-17T00:50:36.457Z,99.90
2018-09-17T00:53:04.779Z,99.90
2018-09-17T00:55:33.099Z,99.90
2018-09-17T00:58:01.473Z,99.90
2018-09-17T01:00:29.762Z,99.90
2018-09-17T01:02:58.071Z,99.90
2018-09-17T01:05:26.374Z,99.90
2018-09-17T01:08:01.425Z,99.90
2018-09-17T01:10:29.817Z,99.90
2018-09-17T01:12:58.207Z,99.90
2018-09-17T01:15:26.545Z,99.90
2018-09-17T01:17:54.883Z,99.90
2018-09-17T01:20:23.665Z,99.90
2018-09-17T01:22:52.005Z,99.90
2018-09-17T01:25:20.479Z,99.90
2018-09-17T01:27:48.848Z,99.90
2018-09-17T01:30:17.230Z,99.90
2018-09-17T01:32:45.628Z,99.90
2018-09-17T01:35:14.016Z,99.90
2018-09-17T01:37:42.381Z,99.90
2018-09-17T01:40:10.798Z,99.90
2018-09-17T01:42:39.166Z,99.90
2018-09-17T01:45:07.538Z,99.90
2018-09-17T01:47:35.921Z,99.90
2018-09-17T01:50:04.698Z,99.90
2018-09-17T01:52:33.127Z,99.90
2018-09-17T01:55:01.515Z,99.90
2018-09-17T01:57:29.981Z,99.90
2018-09-17T01:59:58.346Z,99.90
2018-09-17T02:02:26.675Z,99.90
2018-09-17T02:04:54.994Z,99.90
2018-09-17T02:07:24.402Z,99.90
2018-09-17T02:09:52.759Z,99.90
2018-09-17T02:12:21.092Z,99.90
2018-09-17T02:14:49.452Z,99.90
2018-09-17T02:17:17.823Z,99.90
2018-09-17T02:19:46.198Z,99.90
2018-09-17T02:22:14.572Z,99.90
2018-09-17T02:24:42.957Z,99.90
2018-09-17T02:27:11.281Z,99.90
2018-09-17T02:29:39.649Z,99.90
2018-09-17T02:32:07.977Z,99.90
2018-09-17T02:34:36.313Z,99.90
2018-09-17T02:37:04.673Z,99.90
2018-09-17T02:39:33.065Z,99.90
2018-09-17T02:42:01.383Z,99.90
2018-09-17T02:44:29.723Z,99.90
2018-09-17T02:46:58.091Z,99.90
2018-09-17T02:49:26.445Z,99.90
2018-09-17T02:51:54.796Z,99.90
2018-09-17T02:54:23.162Z,99.90
2018-09-17T02:56:51.524Z,99.90
2018-09-17T02:59:19.853Z,99.90
2018-09-17T03:01:48.216Z,99.90
2018-09-17T03:04:16.554Z,99.90
2018-09-17T03:06:45.256Z,99.90
2018-09-17T03:09:13.595Z,99.90
2018-09-17T03:11:41.923Z,99.90
2018-09-17T03:14:10.357Z,99.90
2018-09-17T03:16:49.972Z,99.90
2018-09-17T03:19:18.364Z,99.90
2018-09-17T03:21:46.785Z,99.90
2018-09-17T03:24:15.150Z,99.90
2018-09-17T03:26:43.523Z,99.90
2018-09-17T03:29:11.834Z,99.90
2018-09-17T03:31:40.210Z,99.90
2018-09-17T03:34:08.564Z,99.90
2018-09-17T03:36:36.956Z,99.90
2018-09-17T03:39:06.541Z,99.90
2018-09-17T03:41:35.296Z,99.90
2018-09-17T03:44:03.692Z,99.90
2018-09-17T03:46:33.084Z,99.90
2018-09-17T03:49:01.331Z,99.90
2018-09-17T03:51:29.701Z,99.90
2018-09-17T03:53:58.061Z,99.90
2018-09-17T03:56:26.399Z,99.90
2018-09-17T03:58:54.740Z,99.90
2018-09-17T04:01:23.076Z,99.90
2018-09-17T04:03:51.429Z,99.90
2018-09-17T04:06:19.788Z,99.90
2018-09-17T04:08:48.110Z,99.90
2018-09-17T04:11:16.523Z,99.90
2018-09-17T04:13:44.887Z,99.90
2018-09-17T04:16:13.250Z,99.90
2018-09-17T04:18:41.690Z,99.90
2018-09-17T04:21:09.999Z,99.90
2018-09-17T04:23:38.859Z,99.90
2018-09-17T04:26:09.324Z,99.90
2018-09-17T04:28:38.252Z,99.90
2018-09-17T04:31:06.651Z,99.90
2018-09-17T04:33:36.941Z,99.90
2018-09-17T04:36:05.370Z,99.90
2018-09-17T04:38:33.746Z,99.90
2018-09-17T04:41:02.338Z,99.90
2018-09-17T04:43:30.725Z,99.90
2018-09-17T04:45:59.255Z,99.90
2018-09-17T04:48:27.619Z,99.90
2018-09-17T04:50:55.991Z,99.90
2018-09-17T04:53:24.402Z,99.90
2018-09-17T04:55:52.731Z,99.90
2018-09-17T04:58:21.106Z,99.90
2018-09-17T05:00:49.539Z,99.90
2018-09-17T05:03:17.944Z,99.90
2018-09-17T05:05:46.277Z,99.90
2018-09-17T05:08:14.621Z,99.90
2018-09-17T05:10:42.961Z,99.90
2018-09-17T05:13:11.425Z,99.90
2018-09-17T05:15:39.647Z,99.90
2018-09-17T05:18:08.004Z,99.90
2018-09-17T05:20:36.446Z,99.90
2018-09-17T05:23:04.759Z,99.90
2018-09-17T05:25:33.115Z,99.90
2018-09-17T05:28:01.508Z,99.90
2018-09-17T05:30:29.858Z,99.90
2018-09-17T05:32:58.198Z,99.90
2018-09-17T05:35:26.564Z,99.90
2018-09-17T05:37:54.901Z,99.90
2018-09-17T05:40:23.270Z,99.90
2018-09-17T05:42:51.597Z,99.90
2018-09-17T05:45:20.060Z,99.90
2018-09-17T05:47:48.421Z,99.90
2018-09-17T05:50:16.813Z,99.90
2018-09-17T05:52:45.167Z,99.90
2018-09-17T05:55:13.526Z,99.90
2018-09-17T05:57:41.856Z,99.90
2018-09-17T06:00:10.270Z,99.90
2018-09-17T06:02:38.590Z,99.90
2018-09-17T06:05:06.930Z,99.90
2018-09-17T06:07:35.258Z,99.90
2018-09-17T06:10:05.811Z,99.90
2018-09-17T06:12:34.182Z,99.90
2018-09-17T06:15:02.532Z,99.90
2018-09-17T06:17:30.932Z,99.90
2018-09-17T06:19:59.257Z,99.90
2018-09-17T06:22:27.590Z,99.90
2018-09-17T06:24:55.946Z,99.90
2018-09-17T06:27:24.271Z,99.90
2018-09-17T06:29:52.623Z,99.90
2018-09-17T06:32:20.966Z,99.90
2018-09-17T06:34:49.287Z,99.90
2018-09-17T06:37:17.714Z,99.90
2018-09-17T06:39:46.033Z,99.90
2018-09-17T06:42:14.360Z,99.90
2018-09-17T06:44:42.916Z,99.90
2018-09-17T06:47:11.435Z,99.90
2018-09-17T06:49:39.943Z,99.90
2018-09-17T06:52:08.392Z,99.90
2018-09-17T06:54:36.764Z,99.90
2018-09-17T06:57:05.244Z,99.90
2018-09-17T06:59:33.623Z,99.90
2018-09-17T07:02:02.106Z,99.90
2018-09-17T07:04:30.447Z,99.90
2018-09-17T07:06:58.806Z,99.90
2018-09-17T07:09:27.128Z,99.90
2018-09-17T07:11:55.483Z,99.90
2018-09-17T07:14:23.807Z,99.90
2018-09-17T07:16:52.245Z,99.90
2018-09-17T07:19:20.589Z,99.90
2018-09-17T07:21:48.924Z,99.90
2018-09-17T07:24:17.243Z,99.90
2018-09-17T07:26:45.583Z,99.90
2018-09-17T07:29:13.906Z,99.90
2018-09-17T07:31:42.220Z,99.90
2018-09-17T07:34:10.608Z,99.90
2018-09-17T07:36:38.961Z,99.90
2018-09-17T07:39:09.212Z,99.90
2018-09-17T07:41:37.517Z,99.90
2018-09-17T07:44:05.952Z,99.90
2018-09-17T07:46:34.429Z,99.90
2018-09-17T07:49:02.784Z,99.90
2018-09-17T07:51:31.110Z,99.90
2018-09-17T07:53:59.504Z,99.90
2018-09-17T07:56:28.137Z,99.90
2018-09-17T07:58:56.518Z,99.90
2018-09-17T08:01:24.884Z,99.90
2018-09-17T08:03:53.417Z,99.90
2018-09-17T08:06:21.810Z,99.90
2018-09-17T08:08:50.263Z,99.90
2018-09-17T08:11:18.630Z,99.90
2018-09-17T08:13:47.140Z,99.90
2018-09-17T08:16:15.560Z,99.90
2018-09-17T08:18:43.912Z,99.90
2018-09-17T08:21:12.278Z,99.90
2018-09-17T08:23:40.662Z,99.90
2018-09-17T08:26:09.022Z,99.90
2018-09-17T08:28:37.392Z,99.90
2018-09-17T08:31:06.292Z,99.90
2018-09-17T08:33:34.598Z,99.90
2018-09-17T08:36:02.990Z,99.90
2018-09-17T08:38:31.340Z,99.90
2018-09-17T08:40:59.650Z,99.90
2018-09-17T08:43:28.011Z,99.90
2018-09-17T08:45:56.366Z,99.90
2018-09-17T08:48:24.770Z,99.90
2018-09-17T08:50:53.174Z,99.90
2018-09-17T08:53:21.551Z,99.90
2018-09-17T08:55:55.237Z,99.90
2018-09-17T08:58:25.061Z,99.90
2018-09-17T09:00:58.869Z,99.90
2018-09-17T09:03:32.647Z,99.90
2018-09-17T09:06:07.520Z,99.90
2018-09-17T09:08:35.943Z,99.90
2018-09-17T09:11:09.587Z,99.90
2018-09-17T09:13:43.328Z,99.90
2018-09-17T09:16:11.773Z,99.90
2018-09-17T09:18:40.107Z,99.90
2018-09-17T09:21:08.430Z,99.90
2018-09-17T09:23:37.787Z,99.90
2018-09-17T09:26:06.124Z,99.90
2018-09-17T09:28:34.456Z,99.90
2018-09-17T09:31:02.808Z,99.90
2018-09-17T09:33:31.203Z,99.90
2018-09-17T09:35:59.667Z,99.90
2018-09-17T09:38:28.049Z,99.90
2018-09-17T09:40:56.417Z,99.90
2018-09-17T09:43:24.848Z,99.90
2018-09-17T09:45:53.346Z,99.90
2018-09-17T09:48:21.820Z,99.90
2018-09-17T09:50:50.205Z,99.90
2018-09-17T09:53:18.598Z,99.90
2018-09-17T09:55:46.940Z,99.90
2018-09-17T09:58:15.279Z,99.90
2018-09-17T10:00:48.914Z,99.90
2018-09-17T10:03:21.649Z,99.90
2018-09-17T10:05:50.050Z,99.90
2018-09-17T10:08:18.483Z,99.90
2018-09-17T10:10:52.150Z,99.90
2018-09-17T10:13:25.841Z,99.90
2018-09-17T10:15:55.586Z,99.90
2018-09-17T10:18:29.326Z,99.90
2018-09-17T10:20:58.049Z,99.90
2018-09-17T10:23:26.678Z,99.90
2018-09-17T10:25:59.053Z,99.90
2018-09-17T10:28:27.412Z,99.90
2018-09-17T10:30:55.742Z,99.90
2018-09-17T10:33:24.103Z,99.90
2018-09-17T10:35:52.441Z,99.90
2018-09-17T10:38:20.798Z,99.90
2018-09-17T10:40:49.120Z,99.90
2018-09-17T10:43:17.628Z,99.90
2018-09-17T10:45:46.138Z,99.90
2018-09-17T10:48:14.611Z,99.90
2018-09-17T10:50:43.106Z,99.90
2018-09-17T10:53:11.468Z,99.90
2018-09-17T10:55:39.804Z,99.90
2018-09-17T10:58:08.127Z,99.90
2018-09-17T11:00:36.758Z,99.90
2018-09-17T11:03:05.099Z,99.90
2018-09-17T11:05:33.439Z,99.90
2018-09-17T11:08:01.803Z,99.90
2018-09-17T11:10:30.215Z,99.90
2018-09-17T11:12:58.668Z,99.90
2018-09-17T11:15:32.263Z,99.90
2018-09-17T11:18:00.674Z,99.90
2018-09-17T11:20:29.059Z,99.90
2018-09-17T11:22:57.422Z,99.90
2018-09-17T11:25:25.795Z,99.90
2018-09-17T11:27:54.127Z,99.90
2018-09-17T11:30:22.446Z,99.90
2018-09-17T11:32:50.880Z,99.70
2018-09-17T11:35:19.230Z,99.50
2018-09-17T11:37:47.913Z,99.60
2018-09-17T11:40:16.402Z,99.20
2018-09-17T11:42:44.758Z,99.30
2018-09-17T11:45:13.122Z,99.30
2018-09-17T11:47:41.476Z,99.10
2018-09-17T11:50:09.922Z,99.60
2018-09-17T11:52:38.271Z,98.90
2018-09-17T11:55:06.767Z,99.40
2018-09-17T11:57:35.178Z,99.10
2018-09-17T12:00:03.575Z,98.10
2018-09-17T12:02:33.900Z,97.40
2018-09-17T12:05:07.068Z,95.60
2018-09-17T12:07:42.314Z,95.20
2018-09-17T12:10:11.347Z,96.40
2018-09-17T12:12:40.136Z,95.90
2018-09-17T12:15:08.914Z,95.90
2018-09-17T12:17:37.309Z,96.30
2018-09-17T12:20:05.688Z,96.70
2018-09-17T12:22:34.064Z,96.40
2018-09-17T12:25:02.644Z,96.90
2018-09-17T12:27:30.993Z,96.30
2018-09-17T12:29:59.366Z,96.90
2018-09-17T12:32:27.733Z,95.70
2018-09-17T12:34:56.085Z,95.70
2018-09-17T12:37:24.449Z,97.00
2018-09-17T12:39:52.829Z,96.30
2018-09-17T12:42:21.191Z,96.20
2018-09-17T12:44:49.551Z,96.10
2018-09-17T12:47:17.883Z,95.10
2018-09-17T12:49:46.281Z,97.10
2018-09-17T12:52:14.611Z,97.80
2018-09-17T12:54:42.983Z,95.10
2018-09-17T12:57:11.315Z,95.10
2018-09-17T12:59:39.607Z,95.20
2018-09-17T13:02:07.992Z,94.50
2018-09-17T13:04:36.292Z,94.30
2018-09-17T13:07:04.724Z,94.30
2018-09-17T13:09:33.166Z,96.30
2018-09-17T13:12:01.491Z,93.30
2018-09-17T13:14:29.818Z,94.70
2018-09-17T13:16:58.151Z,94.10
2018-09-17T13:19:26.472Z,97.00
2018-09-17T13:21:54.814Z,95.00
2018-09-17T13:24:23.137Z,94.70
2018-09-17T13:26:51.480Z,93.90
2018-09-17T13:29:19.809Z,93.00
2018-09-17T13:31:48.180Z,92.90
2018-09-17T13:34:16.497Z,93.40
2018-09-17T13:36:44.860Z,91.60
2018-09-17T13:39:13.180Z,91.30
2018-09-17T13:41:42.401Z,91.10
2018-09-17T13:44:10.791Z,90.70
2018-09-17T13:46:39.166Z,90.60
2018-09-17T13:49:07.488Z,90.30
2018-09-17T13:51:35.823Z,89.00
2018-09-17T13:54:04.163Z,88.70
2018-09-17T13:56:32.484Z,87.40
2018-09-17T13:59:00.903Z,87.20
2018-09-17T14:01:29.275Z,87.10
2018-09-17T14:03:57.673Z,89.20
2018-09-17T14:06:25.987Z,88.30
2018-09-17T14:08:54.366Z,86.70
2018-09-17T14:11:22.756Z,85.60
2018-09-17T14:13:51.118Z,81.60
2018-09-17T14:16:24.855Z,81.50
2018-09-17T14:18:53.274Z,82.20
2018-09-17T14:21:21.687Z,79.40
2018-09-17T14:23:50.076Z,81.20
2018-09-17T14:26:18.498Z,76.00
2018-09-17T14:28:46.862Z,76.50
2018-09-17T14:31:15.230Z,78.50
2018-09-17T14:33:43.590Z,79.10
2018-09-17T14:36:12.009Z,79.40
2018-09-17T14:38:40.894Z,78.00
2018-09-17T14:41:11.162Z,79.60
2018-09-17T14:43:40.289Z,79.40
2018-09-17T14:46:08.702Z,81.50
2018-09-17T14:48:38.078Z,81.90
2018-09-17T14:51:06.518Z,83.60
2018-09-17T14:53:34.945Z,84.00
2018-09-17T14:56:03.319Z,81.80
2018-09-17T14:58:32.823Z,82.40
2018-09-17T15:01:01.978Z,82.10
2018-09-17T15:03:30.486Z,82.10
2018-09-17T15:05:59.857Z,83.00
2018-09-17T15:08:28.271Z,82.50
2018-09-17T15:10:56.583Z,84.20
2018-09-17T15:13:24.974Z,84.20
2018-09-17T15:15:56.243Z,85.60
2018-09-17T15:18:24.960Z,84.50
2018-09-17T15:20:53.538Z,85.70
2018-09-17T15:23:22.756Z,87.60
2018-09-17T15:25:53.932Z,89.10
2018-09-17T15:28:22.980Z,89.90
2018-09-17T15:30:52.682Z,90.50
2018-09-17T15:33:21.077Z,91.00
2018-09-17T15:35:49.723Z,91.30
2018-09-17T15:38:18.178Z,92.10
2018-09-17T15:40:46.493Z,91.40
2018-09-17T15:43:14.833Z,91.30
2018-09-17T15:45:45.045Z,90.40
2018-09-17T15:48:18.461Z,90.60
2018-09-17T15:50:46.778Z,91.30
2018-09-17T15:53:15.116Z,92.30
2018-09-17T15:55:43.841Z,92.30
2018-09-17T15:58:12.726Z,93.00
2018-09-17T16:00:41.290Z,93.20
2018-09-17T16:03:10.354Z,93.60
2018-09-17T16:05:40.845Z,94.00
2018-09-17T16:08:10.252Z,94.20
2018-09-17T16:10:38.598Z,94.50
2018-09-17T16:13:06.951Z,94.70
2018-09-17T16:15:36.915Z,95.70
2018-09-17T16:18:06.520Z,95.70
2018-09-17T16:20:35.315Z,95.50
2018-09-17T16:23:04.251Z,95.60
2018-09-17T16:25:32.843Z,95.40
2018-09-17T16:28:03.263Z,95.90
2018-09-17T16:30:32.976Z,96.00
2018-09-17T16:33:03.487Z,96.30
2018-09-17T16:35:32.197Z,96.40
2018-09-17T16:38:02.686Z,96.90
2018-09-17T16:40:32.070Z,96.50
2018-09-17T16:43:07.155Z,96.60
2018-09-17T16:45:37.631Z,96.40
2018-09-17T16:48:07.399Z,96.80
2018-09-17T16:50:37.371Z,97.70
2018-09-17T16:53:05.789Z,97.40
2018-09-17T16:55:34.134Z,97.30
2018-09-17T16:58:02.453Z,98.30
2018-09-17T17:00:30.979Z,98.40
2018-09-17T17:02:59.862Z,98.90
2018-09-17T17:05:28.189Z,99.10
2018-09-17T17:07:58.679Z,98.40
2018-09-17T17:10:27.255Z,99.10
2018-09-17T17:12:55.647Z,99.40
2018-09-17T17:15:24.208Z,99.40
2018-09-17T17:17:53.549Z,99.60
2018-09-17T17:20:22.567Z,99.80
2018-09-17T17:22:52.043Z,99.90
2018-09-17T17:25:20.459Z,99.90
2018-09-17T17:27:48.859Z,99.90
2018-09-17T17:30:19.598Z,99.90
2018-09-17T17:32:49.420Z,99.90
2018-09-17T17:35:17.942Z,99.90
2018-09-17T17:37:47.116Z,99.90
2018-09-17T17:40:17.152Z,99.90
2018-09-17T17:42:46.130Z,99.90
2018-09-17T17:45:14.763Z,99.90
2018-09-17T17:47:43.302Z,99.90
2018-09-17T17:50:11.826Z,99.90
2018-09-17T17:52:40.333Z,99.90
2018-09-17T17:55:09.237Z,99.90
2018-09-17T17:57:38.558Z,99.90
2018-09-17T18:00:09.131Z,99.90
2018-09-17T18:02:38.866Z,99.90
2018-09-17T18:05:07.740Z,99.90
2018-09-17T18:07:37.548Z,99.90
2018-09-17T18:10:06.898Z,99.90
2018-09-17T18:12:36.710Z,99.90
2018-09-17T18:15:05.117Z,99.90
2018-09-17T18:17:33.539Z,99.90
2018-09-17T18:20:02.570Z,99.90
2018-09-17T18:22:32.243Z,99.90
2018-09-17T18:25:02.192Z,99.90
2018-09-17T18:27:30.710Z,99.90
2018-09-17T18:29:59.271Z,99.90
2018-09-17T18:32:27.750Z,99.90
2018-09-17T18:34:57.591Z,99.90
2018-09-17T18:37:27.241Z,99.90
2018-09-17T18:39:56.839Z,99.90
2018-09-17T18:42:25.353Z,99.90
2018-09-17T18:44:55.294Z,99.90
2018-09-17T18:47:23.761Z,99.90
2018-09-17T18:49:53.105Z,99.90
2018-09-17T18:52:21.493Z,99.90
2018-09-17T18:54:49.880Z,99.90
2018-09-17T18:57:19.927Z,99.90
2018-09-17T18:59:48.483Z,99.90
2018-09-17T19:02:19.187Z,99.90
2018-09-17T19:04:48.332Z,99.90
2018-09-17T19:07:17.625Z,99.90
2018-09-17T19:09:47.054Z,99.90
2018-09-17T19:12:18.053Z,99.90
2018-09-17T19:14:52.473Z,99.90
2018-09-17T19:17:26.490Z,99.90
2018-09-17T19:19:55.307Z,99.90
2018-09-17T19:22:29.696Z,99.90
2018-09-17T19:24:59.611Z,99.90
2018-09-17T19:27:34.194Z,99.90
2018-09-17T19:30:04.114Z,99.90
2018-09-17T19:32:33.686Z,99.90
2018-09-17T19:35:02.306Z,99.90
2018-09-17T19:37:36.371Z,99.90
2018-09-17T19:40:10.609Z,99.90
2018-09-17T19:42:39.218Z,99.90
2018-09-17T19:45:13.894Z,99.90
2018-09-17T19:47:42.404Z,99.90
2018-09-17T19:50:17.095Z,99.90
2018-09-17T19:52:45.957Z,99.90
2018-09-17T19:55:15.516Z,99.90
2018-09-17T19:57:49.511Z,99.90
2018-09-17T20:00:18.114Z,99.90
2018-09-17T20:02:47.579Z,99.90
2018-09-17T20:05:21.459Z,99.90
2018-09-17T20:07:50.053Z,99.90
2018-09-17T20:10:20.979Z,99.90
2018-09-17T20:12:51.002Z,99.90
2018-09-17T20:15:21.607Z,99.90
2018-09-17T20:17:50.026Z,99.90
2018-09-17T20:20:19.225Z,99.90
2018-09-17T20:22:47.657Z,99.90
2018-09-17T20:25:18.047Z,99.90
2018-09-17T20:27:46.642Z,99.90
2018-09-17T20:30:15.276Z,99.90
2018-09-17T20:32:43.667Z,99.90
2018-09-17T20:35:12.133Z,99.90
2018-09-17T20:37:40.547Z,99.90
2018-09-17T20:40:08.977Z,99.90
2018-09-17T20:42:37.371Z,99.90
2018-09-17T20:45:05.884Z,99.90
2018-09-17T20:47:34.298Z,99.90
2018-09-17T20:50:02.748Z,99.90
2018-09-17T20:52:31.229Z,99.90
2018-09-17T20:54:59.729Z,99.90
2018-09-17T20:57:28.422Z,99.90
2018-09-17T20:59:56.868Z,99.90
2018-09-17T21:02:25.279Z,99.90
2018-09-17T21:04:53.789Z,99.90
2018-09-17T21:07:22.362Z,99.90
2018-09-17T21:09:50.779Z,99.90
2018-09-17T21:12:19.396Z,99.90
2018-09-17T21:14:47.847Z,99.90
2018-09-17T21:17:16.320Z,99.90
2018-09-17T21:19:44.679Z,99.90
2018-09-17T21:22:13.112Z,99.90
2018-09-17T21:24:41.612Z,99.90
2018-09-17T21:27:10.305Z,99.90
2018-09-17T21:29:38.741Z,99.90
2018-09-17T21:32:07.247Z,99.90
2018-09-17T21:34:35.710Z,99.90
2018-09-17T21:37:04.250Z,99.90
2018-09-17T21:39:32.690Z,99.90
2018-09-17T21:42:01.190Z,99.90
2018-09-17T21:44:29.672Z,99.90
2018-09-17T21:46:58.110Z,99.90
2018-09-17T21:49:26.554Z,99.90
2018-09-17T21:51:55.090Z,99.90
2018-09-17T21:54:23.572Z,99.90
2018-09-17T21:56:52.075Z,99.90
2018-09-17T21:59:20.449Z,99.90
2018-09-17T22:01:48.958Z,99.90
2018-09-17T22:04:17.439Z,99.90
2018-09-17T22:06:45.839Z,99.90
2018-09-17T22:09:14.315Z,99.90
2018-09-17T22:11:42.790Z,99.90
2018-09-17T22:14:11.275Z,99.90
2018-09-17T22:16:39.724Z,99.90
2018-09-17T22:19:08.288Z,99.90
2018-09-17T22:21:36.791Z,99.90
2018-09-17T22:24:05.267Z,99.90
2018-09-17T22:26:33.709Z,99.90
2018-09-17T22:29:02.212Z,99.90
2018-09-17T22:31:30.718Z,99.90
2018-09-17T22:33:59.209Z,99.90
2018-09-17T22:36:27.650Z,99.90
2018-09-17T22:38:56.134Z,99.90
2018-09-17T22:41:24.635Z,99.90
2018-09-17T22:43:53.109Z,99.90
2018-09-17T22:46:21.556Z,99.90
2018-09-17T22:48:49.990Z,99.90
2018-09-17T22:51:18.440Z,99.90
2018-09-17T22:53:46.954Z,99.90
2018-09-17T22:56:15.471Z,99.90
2018-09-17T22:58:43.946Z,99.90
2018-09-17T23:01:12.410Z,99.90
2018-09-17T23:03:40.850Z,99.90
2018-09-17T23:06:09.302Z,99.90
2018-09-17T23:08:37.765Z,99.90
2018-09-17T23:11:06.347Z,99.90
2018-09-17T23:13:34.737Z,99.90
2018-09-17T23:16:03.177Z,99.90
2018-09-17T23:18:31.604Z,99.90
2018-09-17T23:21:00.083Z,99.90
2018-09-17T23:23:28.444Z,99.90
2018-09-17T23:25:56.943Z,99.90
2018-09-17T23:28:25.404Z,99.90
2018-09-17T23:30:53.841Z,99.90
2018-09-17T23:33:22.316Z,99.90
2018-09-17T23:35:50.741Z,99.90
2018-09-17T23:38:19.266Z,99.90
2018-09-17T23:40:47.769Z,99.90
2018-09-17T23:43:16.225Z,99.90
2018-09-17T23:45:44.685Z,99.90
2018-09-17T23:48:13.173Z,99.90
2018-09-17T23:50:41.674Z,99.90
2018-09-17T23:53:10.116Z,99.90
2018-09-17T23:55:38.598Z,99.90
2018-09-17T23:58:07.163Z,99.90
